01:09 Bike Moetz - Telfs - Fiecht - Barwies - Moetz
Ort Moetz Datum 28.04.2010 18:49:50
Kategorie MTB
Distanz 26,09 Kilometer Steigung 288,3 Meter Gefälle -256,0 Meter
Gesamt Zeit 01:08:39 Aktiv 01:08:39 Pause 00:00:00
Durchs. Tempo 22,8 km/h Tempo max. 49,5 km/h Tempo min. 8,4 km/h
Kalorien 0 Durchs. HF 141 BPM HF max. 165 BPM
Wetter 23 °C ScatterClouds
Ausrüstung Schwalbe - Racing Ralph hinten
Schwalbe - Racing Ralph vorne
Specialized - BG S-Works MTB
Specialized - Stumpjumper Comp
SwissStop - Disc17 Avid Juicy
Notiz Moetz - Telfs - Fiecht - Barwies - Moetz ... lockere Ausfahrt ... garmin connect
Splits
Distanz (km) Gesamt Zeit Split Zeit Split Tempo Split Tempo Höhenprofil (m)
1,00 00:02:19 00:02:19 00:02:19 25,9 -6,73
2,00 00:04:21 00:02:02 00:02:02 29,5 -1,92
3,00 00:06:26 00:02:05 00:02:05 28,8 -5,77
4,00 00:08:36 00:02:10 00:02:10 27,7 2,88
5,00 00:10:39 00:02:03 00:02:03 29,3 -1,92
6,00 00:12:40 00:02:01 00:02:01 29,8 -1,92
7,00 00:14:58 00:02:18 00:02:18 26,1 -2,40
8,00 00:17:02 00:02:04 00:02:04 29,0 -2,88
9,00 00:19:07 00:02:05 00:02:05 28,8 -1,92
10,00 00:21:07 00:02:00 00:02:00 30,0 -3,36
11,00 00:23:21 00:02:14 00:02:14 26,9 0,48
12,00 00:25:34 00:02:13 00:02:13 27,1 0,00
13,00 00:28:30 00:02:56 00:02:56 20,5 20,19
14,00 00:32:49 00:04:19 00:04:19 13,9 53,83
15,00 00:37:31 00:04:42 00:04:42 12,8 66,33
16,00 00:41:13 00:03:42 00:03:42 16,2 28,84
17,00 00:45:24 00:04:11 00:04:11 14,3 42,78
18,00 00:48:24 00:03:00 00:03:00 20,0 -7,69
19,00 00:51:42 00:03:18 00:03:18 18,2 14,42
20,00 00:54:36 00:02:54 00:02:54 20,7 15,86
21,00 00:57:34 00:02:58 00:02:58 20,2 13,46
22,00 00:59:37 00:02:03 00:02:03 29,3 1,92
23,00 01:01:21 00:01:44 00:01:44 34,6 -41,82
24,00 01:03:57 00:02:36 00:02:36 23,1 -15,38
25,00 01:06:39 00:02:42 00:02:42 22,2 -107,67
26,00 01:08:27 00:01:48 00:01:48 33,3 -46,14